createdAt,value
2019-01-28T00:03:36.217Z,77.15
2019-01-28T00:08:38.890Z,77.34
2019-01-28T00:13:40.817Z,78.30
2019-01-28T00:18:42.734Z,79.35
2019-01-28T00:23:44.655Z,80.19
2019-01-28T00:28:46.632Z,81.12
2019-01-28T00:33:48.532Z,80.89
2019-01-28T00:38:50.566Z,82.40
2019-01-28T00:43:52.568Z,82.84
2019-01-28T00:48:54.480Z,83.27
2019-01-28T00:54:00.099Z,83.63
2019-01-28T00:59:02.866Z,84.08
2019-01-28T01:04:04.948Z,84.52
2019-01-28T01:09:08.675Z,83.84
2019-01-28T01:14:10.570Z,83.74
2019-01-28T01:19:12.596Z,83.55
2019-01-28T01:24:14.532Z,83.56
2019-01-28T01:29:16.550Z,82.78
2019-01-28T01:34:18.459Z,83.86
2019-01-28T01:39:20.729Z,84.86
2019-01-28T01:44:22.639Z,84.97
2019-01-28T01:49:25.317Z,84.41
2019-01-28T01:54:27.415Z,84.41
2019-01-28T01:59:29.390Z,83.76
2019-01-28T02:04:31.408Z,84.15
2019-01-28T02:09:33.365Z,83.78
2019-01-28T02:14:55.341Z,84.24
2019-01-28T02:19:57.250Z,83.93
2019-01-28T02:24:59.184Z,83.92
2019-01-28T02:30:01.203Z,83.54
2019-01-28T02:35:04.491Z,82.74
2019-01-28T02:40:09.722Z,82.89
2019-01-28T02:45:12.915Z,82.12
2019-01-28T02:50:16.403Z,82.14
2019-01-28T02:55:18.926Z,80.78
2019-01-28T03:00:23.095Z,80.78
2019-01-28T03:05:25.115Z,80.50
2019-01-28T03:10:27.188Z,80.72
2019-01-28T03:15:29.093Z,80.72
2019-01-28T03:20:31.015Z,81.13
2019-01-28T03:25:33.132Z,80.99
2019-01-28T03:30:35.085Z,80.85
2019-01-28T03:35:37.091Z,81.14
2019-01-28T03:40:40.036Z,80.89
2019-01-28T03:45:41.928Z,80.78
2019-01-28T03:50:43.856Z,80.42
2019-01-28T03:55:45.978Z,80.42
2019-01-28T04:00:48.112Z,79.74
2019-01-28T04:05:50.187Z,79.02
2019-01-28T04:10:52.184Z,79.02
2019-01-28T04:15:54.085Z,79.20
2019-01-28T04:20:56.210Z,79.29
2019-01-28T04:25:58.159Z,78.95
2019-01-28T04:31:00.115Z,78.52
2019-01-28T04:36:02.082Z,77.62
2019-01-28T04:41:03.994Z,77.39
2019-01-28T04:46:06.106Z,76.58
2019-01-28T04:51:08.114Z,77.53
2019-01-28T04:56:10.131Z,77.92
2019-01-28T05:01:12.351Z,78.18
2019-01-28T05:06:14.273Z,78.07
2019-01-28T05:11:16.225Z,78.13
2019-01-28T05:16:18.261Z,76.74
2019-01-28T05:21:21.203Z,75.47
2019-01-28T05:26:23.199Z,74.89
2019-01-28T05:31:25.376Z,74.49
2019-01-28T05:36:27.296Z,74.20
2019-01-28T05:41:29.220Z,73.50
2019-01-28T05:46:31.240Z,73.45
2019-01-28T05:51:33.284Z,73.27
2019-01-28T05:56:35.623Z,73.52
2019-01-28T06:01:37.742Z,73.52
2019-01-28T06:06:39.955Z,73.72
2019-01-28T06:11:41.948Z,73.50
2019-01-28T06:16:43.954Z,73.32
2019-01-28T06:21:45.904Z,73.66
2019-01-28T06:26:47.831Z,73.66
2019-01-28T06:31:49.764Z,73.48
2019-01-28T06:36:51.774Z,73.68
2019-01-28T06:41:53.765Z,73.75
2019-01-28T06:46:55.788Z,73.32
2019-01-28T06:51:59.311Z,74.26
2019-01-28T06:57:01.330Z,75.14
2019-01-28T07:02:03.828Z,75.13
2019-01-28T07:07:05.829Z,74.77
2019-01-28T07:12:08.071Z,74.83
2019-01-28T07:17:10.014Z,74.30
2019-01-28T07:22:12.031Z,73.71
2019-01-28T07:27:13.939Z,73.64
2019-01-28T07:32:17.058Z,73.64
2019-01-28T07:37:19.093Z,73.80
2019-01-28T07:42:21.005Z,73.61
2019-01-28T07:47:22.925Z,73.50
2019-01-28T07:52:25.049Z,74.73
2019-01-28T07:57:26.962Z,75.07
2019-01-28T08:02:28.897Z,75.10
2019-01-28T08:07:30.941Z,74.79
2019-01-28T08:12:32.925Z,74.15
2019-01-28T08:17:34.835Z,73.79
2019-01-28T08:22:36.877Z,73.83
2019-01-28T08:27:38.877Z,74.35
2019-01-28T08:32:40.914Z,73.91
2019-01-28T08:37:42.952Z,73.56
2019-01-28T08:42:45.103Z,72.73
2019-01-28T08:47:47.114Z,71.91
2019-01-28T08:52:49.341Z,72.14
2019-01-28T08:57:51.541Z,71.63
2019-01-28T09:02:53.793Z,71.54
2019-01-28T09:07:55.921Z,71.17
2019-01-28T09:12:57.985Z,71.70
2019-01-28T09:17:59.992Z,71.56
2019-01-28T09:23:01.934Z,72.06
2019-01-28T09:28:04.647Z,71.76
2019-01-28T09:33:06.781Z,71.15
2019-01-28T09:38:08.897Z,70.28
2019-01-28T09:43:10.980Z,69.90
2019-01-28T09:48:14.133Z,69.13
2019-01-28T09:53:16.408Z,67.44
2019-01-28T09:58:18.412Z,67.09
2019-01-28T10:03:20.342Z,65.79
2019-01-28T10:08:22.311Z,65.18
2019-01-28T10:13:24.339Z,64.84
2019-01-28T10:18:26.368Z,63.49
2019-01-28T10:23:28.423Z,63.39
2019-01-28T10:28:30.417Z,62.69
2019-01-28T10:33:32.422Z,61.55
2019-01-28T10:38:34.530Z,62.40
2019-01-28T10:43:36.519Z,61.00
2019-01-28T10:48:38.410Z,61.39
2019-01-28T10:53:40.313Z,60.84
2019-01-28T10:58:42.233Z,60.18
2019-01-28T11:03:44.343Z,61.30
2019-01-28T11:08:46.313Z,60.63
2019-01-28T11:13:48.305Z,61.94
2019-01-28T11:18:57.430Z,62.61
2019-01-28T11:23:55.351Z,62.86
2019-01-28T11:28:57.321Z,62.41
2019-01-28T11:33:59.333Z,62.96
2019-01-28T11:39:01.404Z,63.18
2019-01-28T11:44:05.396Z,64.01
2019-01-28T11:49:07.552Z,63.31
2019-01-28T11:54:09.925Z,62.26
2019-01-28T11:59:12.154Z,61.27
2019-01-28T12:04:14.346Z,61.52
2019-01-28T12:09:16.292Z,62.41
2019-01-28T12:14:18.503Z,61.78
2019-01-28T12:19:20.428Z,62.51
2019-01-28T12:24:22.345Z,63.25
2019-01-28T12:29:24.343Z,62.14
2019-01-28T12:34:26.375Z,63.14
2019-01-28T12:39:29.713Z,65.30
2019-01-28T12:44:31.737Z,66.39
2019-01-28T12:49:33.903Z,67.32
2019-01-28T12:54:35.829Z,66.50
2019-01-28T12:59:37.736Z,65.94
2019-01-28T13:04:42.221Z,64.89
2019-01-28T13:09:43.657Z,65.84
2019-01-28T13:14:45.607Z,65.63
2019-01-28T13:19:47.530Z,66.91
2019-01-28T13:24:49.557Z,68.31
2019-01-28T13:29:51.502Z,69.71
2019-01-28T13:34:53.426Z,69.13
2019-01-28T13:39:55.342Z,70.37
2019-01-28T13:44:57.562Z,71.70
2019-01-28T13:50:00.527Z,73.19
2019-01-28T13:55:03.549Z,74.82
2019-01-28T14:00:09.682Z,74.34
2019-01-28T14:05:12.073Z,74.63
2019-01-28T14:10:14.654Z,74.31
2019-01-28T14:15:20.023Z,73.57
2019-01-28T14:20:22.441Z,73.57
2019-01-28T14:25:24.552Z,73.09
2019-01-28T14:30:35.697Z,73.90
2019-01-28T14:35:38.303Z,73.87
2019-01-28T14:40:41.388Z,74.34
2019-01-28T14:45:43.840Z,74.21
2019-01-28T14:50:45.986Z,74.72
2019-01-28T14:55:47.902Z,75.38
2019-01-28T15:00:50.180Z,75.75
2019-01-28T15:05:52.552Z,76.07
2019-01-28T15:10:56.366Z,76.35
2019-01-28T15:15:58.888Z,76.33
2019-01-28T15:21:00.871Z,75.66
2019-01-28T15:26:06.409Z,76.44
2019-01-28T15:31:08.423Z,75.80
2019-01-28T15:36:10.732Z,76.08
2019-01-28T15:41:12.745Z,76.79
2019-01-28T15:46:14.821Z,77.50
2019-01-28T15:51:16.753Z,77.84
2019-01-28T15:56:18.687Z,77.72
2019-01-28T16:01:21.069Z,77.60
2019-01-28T16:06:24.297Z,78.49
2019-01-28T16:11:26.502Z,78.92
2019-01-28T16:16:28.770Z,79.77
2019-01-28T16:21:30.798Z,80.09
2019-01-28T16:26:32.838Z,79.43
2019-01-28T16:31:34.763Z,80.33
2019-01-28T16:36:36.757Z,81.01
2019-01-28T16:41:38.902Z,81.47
2019-01-28T16:46:42.301Z,81.72
2019-01-28T16:51:44.325Z,81.59
2019-01-28T16:56:46.264Z,81.47
2019-01-28T17:01:49.693Z,80.95
2019-01-28T17:06:52.057Z,82.03
2019-01-28T17:11:54.145Z,82.09
2019-01-28T17:16:56.099Z,82.13
2019-01-28T17:21:58.127Z,82.60
2019-01-28T17:27:00.029Z,82.86
2019-01-28T17:32:03.152Z,82.85
2019-01-28T17:37:05.618Z,82.75
2019-01-28T17:42:07.576Z,82.90
2019-01-28T17:47:09.582Z,83.36
2019-01-28T17:52:11.723Z,83.58
2019-01-28T17:57:13.743Z,83.71
2019-01-28T18:02:15.658Z,83.35
2019-01-28T18:07:18.892Z,83.35
2019-01-28T18:12:20.810Z,83.83
2019-01-28T18:17:22.904Z,83.83
2019-01-28T18:22:26.706Z,83.35
2019-01-28T18:27:28.639Z,84.04
2019-01-28T18:32:30.564Z,84.14
2019-01-28T18:37:35.774Z,84.02
2019-01-28T18:42:38.879Z,84.42
2019-01-28T18:47:41.333Z,84.09
2019-01-28T18:52:44.038Z,83.99
2019-01-28T18:57:45.944Z,83.97
2019-01-28T19:02:47.887Z,83.99
2019-01-28T19:07:53.908Z,84.19
2019-01-28T19:13:10.195Z,84.40
2019-01-28T19:18:25.631Z,84.38
2019-01-28T19:23:29.140Z,84.67
2019-01-28T19:28:31.186Z,84.64
2019-01-28T19:33:33.222Z,84.84
2019-01-28T19:38:35.113Z,85.16
2019-01-28T19:43:38.080Z,85.16
2019-01-28T19:48:40.155Z,85.76
2019-01-28T19:53:42.076Z,85.76
2019-01-28T19:58:44.028Z,85.38
2019-01-28T20:03:46.038Z,85.25
2019-01-28T20:08:48.153Z,84.90
2019-01-28T20:13:50.270Z,84.65
2019-01-28T20:18:52.243Z,84.40
2019-01-28T20:23:54.263Z,84.23
2019-01-28T20:28:56.174Z,84.10
2019-01-28T20:33:58.145Z,83.90
2019-01-28T20:39:00.149Z,84.25
2019-01-28T20:44:02.290Z,84.32
2019-01-28T20:49:04.511Z,84.76
2019-01-28T20:54:06.533Z,85.19
2019-01-28T20:59:08.537Z,85.43
2019-01-28T21:04:10.505Z,85.59
2019-01-28T21:09:12.496Z,85.77
2019-01-28T21:14:14.485Z,85.69
2019-01-28T21:19:16.374Z,85.48
2019-01-28T21:24:18.636Z,85.58
2019-01-28T21:29:20.693Z,86.20
2019-01-28T21:34:22.743Z,85.88
2019-01-28T21:39:24.764Z,86.35
2019-01-28T21:44:26.707Z,86.11
2019-01-28T21:49:28.628Z,83.34
2019-01-28T21:54:30.754Z,82.78
2019-01-28T21:59:32.764Z,82.22
2019-01-28T22:04:34.902Z,81.76
2019-01-28T22:09:36.862Z,81.86
2019-01-28T22:14:38.827Z,82.00
2019-01-28T22:19:41.841Z,81.92
2019-01-28T22:24:43.841Z,81.60
2019-01-28T22:29:45.840Z,80.60
2019-01-28T22:34:48.219Z,80.65
2019-01-28T22:39:50.390Z,80.51
2019-01-28T22:44:52.340Z,80.86
2019-01-28T22:49:54.277Z,79.81
2019-01-28T22:54:56.161Z,79.41
2019-01-28T22:59:58.532Z,79.51
2019-01-28T23:05:00.453Z,80.13
2019-01-28T23:10:03.396Z,79.75
2019-01-28T23:15:07.434Z,79.66
2019-01-28T23:20:09.794Z,79.02
2019-01-28T23:25:12.496Z,78.77
2019-01-28T23:30:14.621Z,78.42
2019-01-28T23:35:16.842Z,78.86
2019-01-28T23:40:18.750Z,78.31
2019-01-28T23:45:24.218Z,78.56
2019-01-28T23:50:26.179Z,78.38
2019-01-28T23:55:28.183Z,78.03
